
Distance (Route):
Temperature : 0°C
Humidity : 0%
Pressure : 0hPa| Receiver | Frames | First received | Last received |
|---|---|---|---|
| DL1XH-west | 66 | 2026-09-02 00:40:03 | 2026-09-02 00:54:39 |
| DL1XH1-15 | 43 | 2026-09-02 00:43:12 | 2026-09-02 00:51:53 |
| DJ2DS-15 | 4 | 2026-09-02 00:37:20 | 2026-09-02 00:53:34 |
| Receiver | Date | Latitude | Longitude | Direction | Speed | Altitude | Climb | Temperature | Humidity | Pressure | Voltage | Killtimer | Uptime | BKT | XDATA |
|---|---|---|---|---|---|---|---|---|---|---|---|---|---|---|---|
| DL1XH-west | 2026-09-02 00:54:39 | 59.09530 | 6.94770 | 79° | 5km/h | 28346m | -77.7m/s | 0°C | 0% | 0hPa | 2.5V | 18:12:15 | 02:15:29 | 00:00:00 | |
| DL1XH-west | 2026-09-02 00:54:27 | 59.09524 | 6.94720 | 78° | 18km/h | 29299m | -81.4m/s | 0°C | 0% | 0hPa | 2.5V | 18:12:15 | 02:15:17 | 00:00:00 | |
| DJ2DS-15 | 2026-09-02 00:53:34 | 59.09431 | 6.94368 | 66° | 22km/h | 30838m | 5.9m/s | -42.8°C | 0.8% | 11.1hPa | 2.5V | 00:00:00 | 00:00:00 | 00:00:00 | |
| DL1XH-west | 2026-09-02 00:52:31 | 59.09289 | 6.94080 | 352° | 13km/h | 30493m | 4.8m/s | -44°C | 0% | 11.7hPa | 2.5V | 18:12:15 | 02:13:21 | 00:00:00 | |
| DL1XH-west | 2026-09-02 00:52:17 | 59.09278 | 6.94015 | 60° | 15km/h | 30414m | 5.9m/s | -44.4°C | 0.1% | 11.8hPa | 2.5V | 18:12:15 | 02:13:06 | 00:00:00 | |
| DL1XH-west | 2026-09-02 00:52:02 | 59.09266 | 6.93924 | 99° | 18km/h | 30341m | 5.6m/s | -45°C | 0.2% | 11.9hPa | 2.4V | 18:12:15 | 02:12:52 | 00:00:00 | |
| DL1XH1-15 | 2026-09-02 00:51:53 | 59.09272 | 6.93843 | 95° | 7km/h | 30281m | 5.5m/s | -45°C | 3% | 12hPa | 2.5V | 08:30:00 | 02:12:41 | 00:00:00 | |
| DL1XH-west | 2026-09-02 00:51:51 | 59.09272 | 6.93842 | 96° | 7km/h | 30281m | 5.5m/s | -45°C | 0.3% | 12hPa | 2.5V | 18:12:15 | 02:12:41 | 00:00:00 | |
| DL1XH-west | 2026-09-02 00:51:40 | 59.09286 | 6.93771 | 155° | 15km/h | 30223m | 5.1m/s | -44.9°C | 0.3% | 12.2hPa | 2.5V | 18:12:15 | 02:12:30 | 00:00:00 | |
| DL1XH1-15 | 2026-09-02 00:51:38 | 59.09296 | 6.93758 | 109° | 11km/h | 30202m | 5.4m/s | -44.9°C | 3% | 12.2hPa | 2.4V | 08:30:00 | 02:12:26 | 00:00:00 | |
| DL1XH1-15 | 2026-09-02 00:51:31 | 59.09309 | 6.93715 | 100° | 7km/h | 30150m | 4.9m/s | -44.9°C | 2.9% | 12.3hPa | 2.5V | 08:30:00 | 02:12:16 | 00:00:00 | |
| DL1XH-west | 2026-09-02 00:51:29 | 59.09306 | 6.93724 | 153° | 11km/h | 30166m | 5.2m/s | -44.9°C | 0.2% | 12.2hPa | 2.4V | 18:12:15 | 02:12:19 | 00:00:00 | |
| DL1XH1-15 | 2026-09-02 00:51:20 | 59.09312 | 6.93647 | 140° | 9km/h | 30091m | 4.8m/s | -45.2°C | 3% | 12.4hPa | 2.5V | 08:30:00 | 02:12:05 | 00:00:00 | |
| DL1XH-west | 2026-09-02 00:51:18 | 59.09310 | 6.93663 | 76° | 16km/h | 30107m | 3.8m/s | -45.1°C | 0.1% | 12.4hPa | 2.4V | 18:12:15 | 02:12:08 | 00:00:00 | |
| DL1XH1-15 | 2026-09-02 00:51:09 | 59.09317 | 6.93583 | 103° | 16km/h | 30034m | 5m/s | -45.5°C | 3% | 12.5hPa | 2.4V | 08:30:00 | 02:11:54 | 00:00:00 | |
| DL1XH-west | 2026-09-02 00:51:07 | 59.09315 | 6.93601 | 94° | 13km/h | 30049m | 5.6m/s | -45.5°C | 0.3% | 12.5hPa | 2.5V | 18:12:15 | 02:11:57 | 00:00:00 | |
| DL1XH1-15 | 2026-09-02 00:50:59 | 59.09331 | 6.93492 | 109° | 20km/h | 29981m | 5.3m/s | -45.7°C | 3.1% | 12.6hPa | 2.5V | 08:30:00 | 02:11:44 | 00:00:00 | |
| DL1XH-west | 2026-09-02 00:50:57 | 59.09323 | 6.93514 | 130° | 18km/h | 29998m | 5m/s | -45.7°C | 0.3% | 12.6hPa | 2.4V | 18:12:15 | 02:11:47 | 00:00:00 | |
| DL1XH1-15 | 2026-09-02 00:50:48 | 59.09339 | 6.93393 | 129° | 16km/h | 29915m | 4.9m/s | -45.8°C | 3.1% | 12.7hPa | 2.5V | 08:30:00 | 02:11:32 | 00:00:00 | |
| DL1XH-west | 2026-09-02 00:50:47 | 59.09333 | 6.93433 | 87° | 16km/h | 29943m | 6.1m/s | -45.7°C | 0.2% | 12.7hPa | 2.4V | 18:12:15 | 02:11:37 | 00:00:00 | |
| DL1XH-west | 2026-09-02 00:50:35 | 59.09340 | 6.93336 | 65° | 15km/h | 29877m | 5.3m/s | -45.9°C | 0.3% | 12.8hPa | 2.5V | 18:12:15 | 02:11:25 | 00:00:00 | |
| DL1XH1-15 | 2026-09-02 00:50:32 | 59.09335 | 6.93305 | 92° | 18km/h | 29856m | 3.9m/s | -46.1°C | 3.2% | 12.8hPa | 2.4V | 08:30:00 | 02:11:21 | 00:00:00 | |
| DL1XH-west | 2026-09-02 00:50:21 | 59.09354 | 6.93236 | 59° | 9km/h | 29802m | 6.5m/s | -46°C | 0.4% | 13hPa | 2.5V | 18:12:15 | 02:11:11 | 00:00:00 | |
| DL1XH1-15 | 2026-09-02 00:50:19 | 59.09356 | 6.93214 | 143° | 16km/h | 29763m | 6.2m/s | -45.8°C | 3.1% | 13hPa | 2.4V | 08:30:00 | 02:11:04 | 00:00:00 | |
| DL1XH-west | 2026-09-02 00:50:12 | 59.09368 | 6.93197 | 132° | 22km/h | 29748m | 5.9m/s | -45.7°C | 0.3% | 13.1hPa | 2.5V | 18:12:15 | 02:11:01 | 00:00:00 | |
| DL1XH1-15 | 2026-09-02 00:50:02 | 59.09373 | 6.93110 | 110° | 18km/h | 29691m | 5.2m/s | -45.5°C | 3.1% | 13.2hPa | 2.4V | 08:30:00 | 02:10:51 | 00:00:00 | |
| DL1XH-west | 2026-09-02 00:50:01 | 59.09375 | 6.93101 | 123° | 22km/h | 29685m | 5.5m/s | -45.5°C | 0.3% | 13.2hPa | 2.4V | 18:12:15 | 02:10:50 | 00:00:00 | |
| DJ2DS-15 | 2026-09-02 00:49:58 | 59.09383 | 6.93085 | 136° | 22km/h | 29674m | 4.9m/s | -45.5°C | 0.9% | 13.2hPa | 2.4V | 00:00:00 | 00:00:00 | 00:00:00 | |
| DL1XH1-15 | 2026-09-02 00:49:52 | 59.09389 | 6.92970 | 75° | 20km/h | 29617m | 6.7m/s | -45.5°C | 3% | 13.3hPa | 2.4V | 08:30:00 | 02:10:38 | 00:00:00 | |
| DL1XH-west | 2026-09-02 00:49:50 | 59.09390 | 6.92980 | 72° | 20km/h | 29623m | 5.7m/s | -45.5°C | 0.3% | 13.3hPa | 2.5V | 18:12:15 | 02:10:39 | 00:00:00 | |
| DL1XH1-15 | 2026-09-02 00:49:42 | 59.09373 | 6.92780 | 75° | 18km/h | 29519m | 6.3m/s | -45.7°C | 3.1% | 13.5hPa | 2.5V | 08:30:00 | 02:10:21 | 00:00:00 | |
| DL1XH-west | 2026-09-02 00:49:40 | 59.09371 | 6.92674 | 60° | 18km/h | 29445m | 5.4m/s | -45.7°C | 0.2% | 13.7hPa | 2.5V | 18:12:15 | 02:10:08 | 00:00:00 | |
| DL1XH-west | 2026-09-02 00:49:29 | 59.09369 | 6.92666 | 62° | 16km/h | 29440m | 5.6m/s | -45.8°C | 0.2% | 13.7hPa | 2.5V | 18:12:15 | 02:10:07 | 00:00:00 | |
| DL1XH1-15 | 2026-09-02 00:49:24 | 59.09373 | 6.92682 | 57° | 18km/h | 29451m | 6.4m/s | -45.7°C | 3% | 13.7hPa | 2.5V | 08:30:00 | 02:10:09 | 00:00:00 | |
| DL1XH1-15 | 2026-09-02 00:49:15 | 59.09367 | 6.92616 | 68° | 22km/h | 29394m | 5.9m/s | -46.1°C | 3.1% | 13.8hPa | 2.4V | 08:30:00 | 02:09:59 | 00:00:00 | |
| DL1XH-west | 2026-09-02 00:49:10 | 59.09367 | 6.92616 | 69° | 22km/h | 29394m | 5.9m/s | -46.1°C | 0.3% | 13.8hPa | 2.4V | 18:12:15 | 02:09:59 | 00:00:00 | |
| DL1XH1-15 | 2026-09-02 00:49:03 | 59.09317 | 6.92525 | 65° | 20km/h | 29330m | 6.3m/s | -46.2°C | 3.1% | 13.9hPa | 2.4V | 08:30:00 | 02:09:48 | 00:00:00 | |
| DL1XH-west | 2026-09-02 00:49:00 | 59.09317 | 6.92525 | 66° | 20km/h | 29330m | 6.3m/s | -46.2°C | 0.3% | 13.9hPa | 2.4V | 18:12:15 | 02:09:48 | 00:00:00 | |
| DL1XH1-15 | 2026-09-02 00:48:47 | 59.09266 | 6.92464 | 16° | 20km/h | 29263m | 6.1m/s | -46°C | 3.2% | 14hPa | 2.5V | 08:30:00 | 02:09:36 | 00:00:00 | |
| DL1XH-west | 2026-09-02 00:48:46 | 59.09266 | 6.92464 | 17° | 20km/h | 29263m | 6.1m/s | -46°C | 0.4% | 14hPa | 2.5V | 18:12:15 | 02:09:36 | 00:00:00 | |
| DL1XH-west | 2026-09-02 00:48:35 | 59.09238 | 6.92450 | 18° | 15km/h | 29202m | 5.3m/s | -45.9°C | 0.3% | 14.2hPa | 2.4V | 18:12:15 | 02:09:25 | 00:00:00 | |
| DL1XH-west | 2026-09-02 00:48:18 | 59.09203 | 6.92454 | 51° | 4km/h | 29107m | 5.7m/s | -46.7°C | 0.4% | 14.4hPa | 2.5V | 18:12:15 | 02:09:08 | 00:00:00 | |
| DJ2DS-15 | 2026-09-02 00:48:10 | 59.09216 | 6.92487 | 250° | 9km/h | 29055m | 5.6m/s | -46.8°C | 0.9% | 14.5hPa | 2.5V | 00:00:00 | 00:00:00 | 00:00:00 | |
| DL1XH1-15 | 2026-09-02 00:48:07 | 59.09219 | 6.92494 | 252° | 7km/h | 29010m | 5.1m/s | -46.7°C | 3.1% | 14.6hPa | 2.5V | 08:30:00 | 02:08:51 | 00:00:00 | |
| DL1XH-west | 2026-09-02 00:48:05 | 59.09216 | 6.92495 | 104° | 5km/h | 29032m | 5m/s | -46.8°C | 0.4% | 14.6hPa | 2.4V | 18:12:15 | 02:08:55 | 00:00:00 | |
| DL1XH1-15 | 2026-09-02 00:47:55 | 59.09222 | 6.92545 | 178° | 4km/h | 28949m | 5.3m/s | -47°C | 3.1% | 14.7hPa | 2.4V | 08:30:00 | 02:08:40 | 00:00:00 | |
| DL1XH-west | 2026-09-02 00:47:54 | 59.09219 | 6.92532 | 270° | 15km/h | 28971m | 4.8m/s | -46.8°C | 0.4% | 14.7hPa | 2.5V | 18:12:15 | 02:08:44 | 00:00:00 | |
| DL1XH-west | 2026-09-02 00:47:44 | 59.09219 | 6.92563 | 305° | 11km/h | 28909m | 5.5m/s | -47.5°C | 0.5% | 14.8hPa | 2.4V | 18:12:15 | 02:08:33 | 00:00:00 | |
| DL1XH1-15 | 2026-09-02 00:47:42 | 59.09206 | 6.92588 | 19° | 7km/h | 28876m | 4.4m/s | -47.7°C | 3.4% | 14.9hPa | 2.4V | 08:30:00 | 02:08:27 | 00:00:00 | |
| DL1XH-west | 2026-09-02 00:47:33 | 59.09197 | 6.92590 | 315° | 11km/h | 28849m | 5.1m/s | -47.6°C | 0.5% | 14.9hPa | 2.4V | 18:12:15 | 02:08:22 | 00:00:00 | |
| DL1XH1-15 | 2026-09-02 00:47:32 | 59.09186 | 6.92606 | 318° | 16km/h | 28821m | 6m/s | -47.6°C | 3.4% | 15hPa | 2.5V | 08:30:00 | 02:08:17 | 00:00:00 | |
| DL1XH-west | 2026-09-02 00:47:23 | 59.09171 | 6.92619 | 12° | 7km/h | 28794m | 4.9m/s | -47.5°C | 0.5% | 15.1hPa | 2.4V | 18:12:15 | 02:08:12 | 00:00:00 | |
| DL1XH1-15 | 2026-09-02 00:47:22 | 59.09166 | 6.92626 | 263° | 4km/h | 28768m | 6.3m/s | -47.4°C | 3.3% | 15.1hPa | 2.4V | 08:30:00 | 02:08:07 | 00:00:00 | |
| DL1XH-west | 2026-09-02 00:47:13 | 59.09169 | 6.92636 | 284° | 11km/h | 28739m | 5.5m/s | -47.3°C | 0.4% | 15.2hPa | 2.5V | 18:12:15 | 02:08:02 | 00:00:00 | |
| DL1XH-west | 2026-09-02 00:47:02 | 59.09169 | 6.92641 | 137° | 11km/h | 28684m | 6.2m/s | -47.4°C | 0.5% | 15.3hPa | 2.4V | 18:12:15 | 02:07:52 | 00:00:00 | |
| DL1XH1-15 | 2026-09-02 00:47:02 | 59.09179 | 6.92639 | 235° | 7km/h | 28657m | 3.8m/s | -47.5°C | 3.3% | 15.4hPa | 2.4V | 08:30:00 | 02:07:47 | 00:00:00 | |
| DL1XH-west | 2026-09-02 00:46:52 | 59.09194 | 6.92629 | 143° | 16km/h | 28623m | 6.2m/s | -47.7°C | 0.5% | 15.5hPa | 2.5V | 18:12:15 | 02:07:41 | 00:00:00 | |
| DL1XH1-15 | 2026-09-02 00:46:52 | 59.09206 | 6.92601 | 114° | 15km/h | 28595m | 5.2m/s | -47.8°C | 3.3% | 15.5hPa | 2.5V | 08:30:00 | 02:07:36 | 00:00:00 | |
| DL1XH-west | 2026-09-02 00:46:42 | 59.09212 | 6.92589 | 150° | 7km/h | 28572m | 5m/s | -47.9°C | 0.5% | 15.6hPa | 2.4V | 18:12:15 | 02:07:32 | 00:00:00 | |
| DL1XH1-15 | 2026-09-02 00:46:41 | 59.09225 | 6.92562 | 128° | 13km/h | 28539m | 4.7m/s | -48.1°C | 3.4% | 15.7hPa | 2.4V | 08:30:00 | 02:07:26 | 00:00:00 | |
| DL1XH-west | 2026-09-02 00:46:31 | 59.09228 | 6.92534 | 83° | 5km/h | 28511m | 6m/s | -48.3°C | 0.6% | 15.8hPa | 2.4V | 18:12:15 | 02:07:21 | 00:00:00 | |
| DL1XH1-15 | 2026-09-02 00:46:31 | 59.09228 | 6.92516 | 96° | 11km/h | 28484m | 5.1m/s | -48.3°C | 3.4% | 15.8hPa | 2.4V | 08:30:00 | 02:07:16 | 00:00:00 | |
| DL1XH-west | 2026-09-02 00:46:21 | 59.09228 | 6.92492 | 81° | 13km/h | 28455m | 6.3m/s | -48.2°C | 0.5% | 15.9hPa | 2.5V | 18:12:15 | 02:07:11 | 00:00:00 | |
| DL1XH1-15 | 2026-09-02 00:46:19 | 59.09225 | 6.92467 | 89° | 4km/h | 28428m | 4.2m/s | -48.2°C | 3.4% | 15.9hPa | 2.5V | 08:30:00 | 02:07:06 | 00:00:00 | |
| DL1XH-west | 2026-09-02 00:46:11 | 59.09228 | 6.92446 | 110° | 11km/h | 28402m | 4.8m/s | -48.1°C | 0.5% | 16hPa | 2.4V | 18:12:15 | 02:07:01 | 00:00:00 | |
| DL1XH1-15 | 2026-09-02 00:46:07 | 59.09231 | 6.92431 | 74° | 13km/h | 28376m | 6m/s | -48.1°C | 3.4% | 16.1hPa | 2.4V | 08:30:00 | 02:06:56 | 00:00:00 | |
| DL1XH1-15 | 2026-09-02 00:46:00 | 59.09212 | 6.92365 | 84° | 18km/h | 28324m | 3.8m/s | -48.1°C | 0% | 16.2hPa | 2.4V | 08:30:00 | 02:06:46 | 00:00:00 | |
| DL1XH-west | 2026-09-02 00:45:59 | 59.09215 | 6.92388 | 57° | 13km/h | 28340m | 5.8m/s | -48.2°C | 0.5% | 16.2hPa | 2.4V | 18:12:15 | 02:06:49 | 00:00:00 | |
| DL1XH-west | 2026-09-02 00:45:48 | 59.09209 | 6.92324 | 93° | 11km/h | 28281m | 5.6m/s | -48.3°C | 0.5% | 16.3hPa | 2.5V | 18:12:15 | 02:06:38 | 00:00:00 | |
| DL1XH1-15 | 2026-09-02 00:45:48 | 59.09211 | 6.92314 | 119° | 11km/h | 28270m | 5.1m/s | 0°C | 0% | 0hPa | 2.5V | 08:30:00 | 02:06:36 | 00:00:00 | |
| DL1XH1-15 | 2026-09-02 00:45:41 | 59.09229 | 6.92262 | 111° | 9km/h | 28217m | 4.7m/s | 0°C | 0% | 0hPa | 2.4V | 08:30:00 | 02:06:26 | 00:00:00 | |
| DL1XH-west | 2026-09-02 00:45:38 | 59.09228 | 6.92266 | 111° | 9km/h | 28222m | 5.4m/s | -49.2°C | 0.6% | 16.4hPa | 2.4V | 18:12:15 | 02:06:27 | 00:00:00 | |
| DL1XH-west | 2026-09-02 00:45:28 | 59.09250 | 6.92225 | 137° | 18km/h | 28169m | 5.7m/s | -49.1°C | 0.6% | 16.6hPa | 2.5V | 18:12:15 | 02:06:17 | 00:00:00 | |
| DL1XH1-15 | 2026-09-02 00:45:27 | 59.09258 | 6.92214 | 148° | 20km/h | 28159m | 5.3m/s | 0°C | 0% | 0hPa | 2.5V | 08:30:00 | 02:06:15 | 00:00:00 | |
| DL1XH-west | 2026-09-02 00:45:17 | 59.09283 | 6.92159 | 104° | 20km/h | 28112m | 5.9m/s | -49.5°C | 0.6% | 16.7hPa | 2.4V | 18:12:15 | 02:06:06 | 00:00:00 | |
| DL1XH1-15 | 2026-09-02 00:45:17 | 59.09286 | 6.92136 | 103° | 27km/h | 28102m | 3.9m/s | 0°C | 0% | 0hPa | 2.4V | 08:30:00 | 02:06:04 | 00:00:00 | |
| DL1XH1-15 | 2026-09-02 00:45:07 | 59.09303 | 6.92053 | 140° | 15km/h | 28049m | 6m/s | 0°C | 0% | 0hPa | 2.5V | 08:30:00 | 02:05:54 | 00:00:00 | |
| DL1XH-west | 2026-09-02 00:45:06 | 59.09297 | 6.92066 | 129° | 20km/h | 28060m | 4.6m/s | -50°C | 0.7% | 16.9hPa | 2.5V | 18:12:15 | 02:05:56 | 00:00:00 | |
| DL1XH1-15 | 2026-09-02 00:45:00 | 59.09320 | 6.92011 | 79° | 9km/h | 27993m | 6m/s | 0°C | 0% | 0hPa | 2.5V | 00:00:00 | 02:05:44 | 00:00:00 | |
| DL1XH-west | 2026-09-02 00:44:55 | 59.09321 | 6.92014 | 83° | 5km/h | 27999m | 5.8m/s | -50°C | 0.7% | 17hPa | 2.5V | 18:12:15 | 02:05:45 | 00:00:00 | |
| DL1XH1-15 | 2026-09-02 00:44:46 | 59.09330 | 6.91977 | 140° | 7km/h | 27937m | 5.3m/s | 0°C | 0% | 0hPa | 2.4V | 00:00:00 | 02:05:34 | 00:00:00 | |
| DL1XH-west | 2026-09-02 00:44:45 | 59.09330 | 6.91977 | 141° | 7km/h | 27937m | 5.3m/s | -50.2°C | 0.7% | 17.2hPa | 2.4V | 18:12:15 | 02:05:34 | 00:00:00 | |
| DL1XH1-15 | 2026-09-02 00:44:39 | 59.09319 | 6.91943 | 93° | 5km/h | 27883m | 6.4m/s | 0°C | 0% | 0hPa | 2.5V | 00:00:00 | 02:05:24 | 00:00:00 | |
| DL1XH-west | 2026-09-02 00:44:34 | 59.09319 | 6.91943 | 93° | 5km/h | 27883m | 6.4m/s | -50.2°C | 0.7% | 17.3hPa | 2.5V | 18:12:15 | 02:05:24 | 00:00:00 | |
| DL1XH1-15 | 2026-09-02 00:44:27 | 59.09327 | 6.91897 | 64° | 7km/h | 27826m | 5.8m/s | 0°C | 0% | 0hPa | 2.4V | 00:00:00 | 02:05:14 | 00:00:00 | |
| DL1XH-west | 2026-09-02 00:44:25 | 59.09327 | 6.91897 | 64° | 7km/h | 27826m | 5.8m/s | -50.3°C | 0.7% | 17.5hPa | 2.4V | 18:12:15 | 02:05:14 | 00:00:00 | |
| DL1XH1-15 | 2026-09-02 00:44:17 | 59.09320 | 6.91842 | 63° | 15km/h | 27769m | 5.1m/s | 0°C | 0% | 0hPa | 2.4V | 00:00:00 | 02:05:04 | 00:00:00 | |
| DL1XH-west | 2026-09-02 00:44:14 | 59.09320 | 6.91842 | 63° | 15km/h | 27769m | 5.1m/s | -50.3°C | 0.7% | 17.6hPa | 2.4V | 18:12:15 | 02:05:04 | 00:00:00 | |
| DL1XH1-15 | 2026-09-02 00:44:09 | 59.09313 | 6.91807 | 85° | 15km/h | 27711m | 6.2m/s | 0°C | 0% | 0hPa | 2.5V | 00:00:00 | 02:04:54 | 00:00:00 | |
| DL1XH-west | 2026-09-02 00:44:03 | 59.09312 | 6.91800 | 69° | 15km/h | 27705m | 5.9m/s | -50.5°C | 0.8% | 17.8hPa | 2.4V | 18:12:15 | 02:04:53 | 00:00:00 | |
| DL1XH1-15 | 2026-09-02 00:43:57 | 59.09301 | 6.91760 | 58° | 5km/h | 27652m | 6.6m/s | 0°C | 0% | 0hPa | 2.4V | 00:00:00 | 02:04:44 | 00:00:00 | |
| DL1XH-west | 2026-09-02 00:43:53 | 59.09301 | 6.91754 | 95° | 9km/h | 27641m | 5.1m/s | -50.5°C | 0.8% | 18hPa | 2.5V | 18:12:15 | 02:04:42 | 00:00:00 | |
| DL1XH1-15 | 2026-09-02 00:43:47 | 59.09295 | 6.91695 | 58° | 11km/h | 27593m | 6m/s | 0°C | 0% | 0hPa | 2.5V | 00:00:00 | 02:04:34 | 00:00:00 | |
| DL1XH-west | 2026-09-02 00:43:41 | 59.09290 | 6.91689 | 42° | 4km/h | 27577m | 6.6m/s | -50.3°C | 0.8% | 18.1hPa | 2.4V | 18:12:15 | 02:04:31 | 00:00:00 | |
| DL1XH1-15 | 2026-09-02 00:43:37 | 59.09294 | 6.91653 | 96° | 15km/h | 27530m | 5.2m/s | 0°C | 0% | 0hPa | 2.4V | 00:00:00 | 02:04:23 | 00:00:00 | |
| DL1XH-west | 2026-09-02 00:43:29 | 59.09289 | 6.91632 | 40° | 9km/h | 27506m | 6.4m/s | -50.3°C | 0.8% | 18.3hPa | 2.5V | 18:12:15 | 02:04:19 | 00:00:00 | |
| DL1XH-west | 2026-09-02 00:43:19 | 59.09294 | 6.91588 | 93° | 9km/h | 27443m | 5.7m/s | 0°C | 0% | 18.5hPa | 2.4V | 18:12:15 | 02:04:08 | 00:00:00 | |
| DL1XH1-15 | 2026-09-02 00:43:12 | 59.09293 | 6.91566 | 141° | 15km/h | 27396m | 6.5m/s | 0°C | 0% | 0hPa | 2.5V | 00:00:00 | 02:04:00 | 00:00:00 | |
| DL1XH-west | 2026-09-02 00:43:07 | 59.09306 | 6.91552 | 155° | 22km/h | 27378m | 5.9m/s | 0°C | 0% | 18.7hPa | 2.4V | 18:12:15 | 02:03:57 | 00:00:00 | |
| DL1XH-west | 2026-09-02 00:42:56 | 59.09324 | 6.91521 | 124° | 13km/h | 27316m | 5.8m/s | 0°C | 0% | 0hPa | 2.5V | 18:12:15 | 02:03:46 | 00:00:00 | |
| DL1XH-west | 2026-09-02 00:42:44 | 59.09340 | 6.91467 | 69° | 13km/h | 27249m | 5.2m/s | 0°C | 0% | 0hPa | 2.4V | 18:12:15 | 02:03:34 | 00:00:00 | |
| DL1XH-west | 2026-09-02 00:42:34 | 59.09351 | 6.91422 | 119° | 11km/h | 27194m | 6.1m/s | 0°C | 0% | 0hPa | 2.5V | 18:12:15 | 02:03:24 | 00:00:00 | |
| DL1XH-west | 2026-09-02 00:42:19 | 59.09374 | 6.91304 | 96° | 18km/h | 27105m | 6.1m/s | 0°C | 0% | 0hPa | 2.4V | 18:12:15 | 02:03:08 | 00:00:00 | |
| DL1XH-west | 2026-09-02 00:41:50 | 59.09368 | 6.91144 | 89° | 9km/h | 26948m | 4.8m/s | 0°C | 0% | 0hPa | 2.4V | 18:12:15 | 02:02:40 | 00:00:00 | |
| DL1XH-west | 2026-09-02 00:41:36 | 59.09368 | 6.91094 | 163° | 5km/h | 26869m | 6.3m/s | 0°C | 0% | 0hPa | 2.4V | 18:12:15 | 02:02:26 | 00:00:00 | |
| DL1XH-west | 2026-09-02 00:41:24 | 59.09376 | 6.91064 | 106° | 11km/h | 26803m | 4.7m/s | 0°C | 0% | 0hPa | 2.4V | 18:12:15 | 02:02:14 | 00:00:00 | |
| DL1XH-west | 2026-09-02 00:41:03 | 59.09394 | 6.90992 | 108° | 11km/h | 26680m | 5.4m/s | 0°C | 0% | 0hPa | 2.4V | 18:12:15 | 02:01:52 | 00:00:00 | |
| DL1XH-west | 2026-09-02 00:40:52 | 59.09403 | 6.90931 | 105° | 5km/h | 26625m | 4.5m/s | 0°C | 0% | 0hPa | 2.4V | 18:12:15 | 02:01:42 | 00:00:00 | |
| DL1XH-west | 2026-09-02 00:40:42 | 59.09413 | 6.90909 | 109° | 11km/h | 26561m | 5.7m/s | 0°C | 0% | 0hPa | 2.4V | 18:12:15 | 02:01:31 | 00:00:00 | |
| DL1XH-west | 2026-09-02 00:40:27 | 59.09433 | 6.90877 | 93° | 11km/h | 26483m | 4.9m/s | 0°C | 0% | 0hPa | 2.4V | 18:12:15 | 02:01:17 | 00:00:00 | |
| DL1XH-west | 2026-09-02 00:40:16 | 59.09452 | 6.90830 | 93° | 9km/h | 26419m | 4.7m/s | 0°C | 0% | 0hPa | 2.5V | 18:12:15 | 02:01:06 | 00:00:00 | |
| DL1XH-west | 2026-09-02 00:40:03 | 59.09464 | 6.90730 | 79° | 15km/h | 26340m | 5.8m/s | 0°C | 0% | 0hPa | 2.4V | 18:12:15 | 02:00:51 | 00:00:00 | |
| DJ2DS-15 | 2026-09-02 00:37:20 | 59.09645 | 6.90322 | 131° | 22km/h | 25447m | 5.7m/s | 0°C | -1.0% | 25.1hPa | 0V | 00:00:00 | 00:00:00 | 00:00:00 |